Wednesday, April 25, 2018, 1:03 AM EDT
Back to Local

KOXB, Ocean City Municipal Airport

Location: Berlin, MD, United States Lat: 38.317
Local Time: 1:03 AM EDT ( 5:03 GMT) Lon: -75.117
Time Zone: US/Eastern Elev: 13 ft

Show me the last for .
Show Decoded

2018-04-24 23:53 METAR KOXB 250353Z AUTO 12010KT 5SM BR OVC003 11/11 A2998 RMK AO2 RAB14E24
                 SLP153 P0000 T01110111 =
2018-04-24 23:44 METAR KOXB 250344Z AUTO 12013KT 5SM BR OVC003 11/11 A2999 RMK AO2 RAB14E24 P0000
                 T01110111 =
2018-04-24 23:14 METAR KOXB 250314Z AUTO 12014KT 3SM -RA BR BKN004 BKN010 OVC020 11/11 A3000 RMK
                 AO2 RAB14 CIG 003V008 P0000 T01110111 =
2018-04-24 23:06 METAR KOXB 250306Z AUTO 12013KT 5SM BR FEW006 BKN010 OVC020 11/11 A3000 RMK AO2
                 T01110111 =
2018-04-24 22:53 METAR KOXB 250253Z AUTO 12014G22KT 7SM FEW010 SCT015 OVC022 11/11 A3001 RMK AO2
                 RAE13 SLP161 P0001 60010 T01110111 58024 =
2018-04-24 21:59 METAR KOXB 250159Z AUTO 11008KT 4SM -RA BR FEW009 BKN015 OVC032 11/11 A3004 RMK
                 AO2 P0000 T01110111 =
2018-04-24 21:53 METAR KOXB 250153Z AUTO 11009KT 4SM -RA BR BKN015 OVC032 11/11 A3005 RMK AO2
                 SLP174 P0003 T01110111 =
2018-04-24 20:53 METAR KOXB 250053Z AUTO 10007KT 5SM -RA BR BKN023 BKN028 OVC036 11/11 A3007 RMK
                 AO2 SLP181 P0006 T01110111 =
2018-04-24 20:45 METAR KOXB 250045Z AUTO 10009KT 5SM -RA BR BKN026 OVC034 11/11 A3007 RMK AO2
                 P0005 T01110111 =
2018-04-24 20:03 METAR KOXB 250003Z AUTO 10006KT 5SM -RA BR SCT025 BKN030 OVC050 11/11 A3008 RMK
                 AO2 P0000 T01110106 =
2018-04-24 19:53 METAR KOXB 242353Z AUTO 10009KT 4SM -RA BR BKN025 BKN030 OVC060 11/11 A3008 RMK
                 AO2 SLP186 P0003 60004 T01110106 10133 20111 56016 =
2018-04-24 18:53 METAR KOXB 242253Z AUTO 12010KT 9SM -RA BKN065 OVC090 11/11 A3010 RMK AO2 SLP191
                 P0001 T01110106 =
2018-04-24 17:53 METAR KOXB 242153Z AUTO 10009KT 7SM -RA FEW029 OVC036 11/10 A3011 RMK AO2 RAB36
                 SLP195 P0000 T01110100 =
2018-04-24 16:53 METAR KOXB 242053Z AUTO 09010KT 9SM FEW080 BKN100 12/10 A3013 RMK AO2 SLP202
                 T01170100 58037 =
2018-04-24 15:53 METAR KOXB 241953Z AUTO 09010KT 10SM CLR 12/10 A3016 RMK AO2 SLP213 T01220100 =
2018-04-24 14:53 METAR KOXB 241853Z AUTO 09010KT 10SM SCT050 13/10 A3021 RMK AO2 SLP229 T01280100
                 =
2018-04-24 13:53 METAR KOXB 241753Z AUTO 10011KT 10SM SCT049 13/11 A3024 RMK AO2 SLP239 T01330106
                 10133 20111 56025 =
2018-04-24 12:53 METAR KOXB 241653Z AUTO 11010KT 10SM SCT050 13/10 A3026 RMK AO2 SLP245 T01280100
                 =
2018-04-24 11:53 METAR KOXB 241553Z AUTO 11011KT 10SM SCT050 13/10 A3028 RMK AO2 SLP254 T01280100
                 =
2018-04-24 10:53 METAR KOXB 241453Z AUTO 11012KT 10SM FEW050 13/10 A3031 RMK AO2 SLP264 T01280100
                 55004 =
2018-04-24 09:53 METAR KOXB 241353Z AUTO 11011KT 10SM FEW050 13/10 A3031 RMK AO2 SLP264 T01280100
                 =
2018-04-24 08:53 METAR KOXB 241253Z AUTO 11010KT 10SM CLR 12/09 A3032 RMK AO2 SLP266 T01170094 =
2018-04-24 07:53 METAR KOXB 241153Z AUTO 11012KT 10SM CLR 11/09 A3033 RMK AO2 SLP268 T01110094
                 10111 20106 55001 =
2018-04-24 06:53 METAR KOXB 241053Z AUTO 11011G18KT 10SM CLR 11/09 A3032 RMK AO2 SLP268 T01060089
                 $ =
2018-04-24 05:53 METAR KOXB 240953Z AUTO 11010KT 10SM CLR 11/08 A3032 RMK AO2 SLP267 T01060083 $
                 =
2018-04-24 04:53 METAR KOXB 240853Z AUTO 10SM CLR 11/08 A3033 RMK AO2 SLP269 T01060083 56014 $ =
2018-04-24 03:53 METAR KOXB 240753Z AUTO 11010KT 10SM CLR 11/08 A3034 RMK AO2 SLP273 T01060078 $
                 =
2018-04-24 02:53 METAR KOXB 240653Z AUTO 11011KT 10SM CLR 11/07 A3035 RMK AO2 SLP278 T01060072 =
2018-04-24 01:53 METAR KOXB 240553Z AUTO 12010KT 10SM CLR 11/07 A3037 RMK AO2 SLP283 T01060072
                 10111 20089 58013 =

Support USWX by starting your Amazon purchase here.